Wetterdaten: Woche 13.05.19 - 19.05.19 (KW20)
Datum Zeit Temp. Aussen Temp. o. S. +5cm Feuchte Auss Luftdruck Regen Sonnenschein Regendauer Solar Windben Empfang
13.05.2019 00:00 8,4 C 6,9 C 6,4 C 73 % 1035,4 hPa 0,0 l/m 0,00 h 0,00 h 0 W/m 5,1 km/h (1 Bft) 97,29 %
13.05.2019 01:00 7,3 C 5,6 C 5,0 C 75 % 1035,8 hPa 0,0 l/m 0,00 h 0,00 h 0 W/m 4,4 km/h (1 Bft) 97,15 %
13.05.2019 02:00 6,4 C 5,3 C 4,6 C 79 % 1035,9 hPa 0,0 l/m 0,00 h 0,00 h 0 W/m 4,4 km/h (1 Bft) 97,94 %
13.05.2019 03:00 5,8 C 4,3 C 3,8 C 82 % 1035,9 hPa 0,0 l/m 0,00 h 0,00 h 0 W/m 3,1 km/h (1 Bft) 98,22 %
13.05.2019 04:00 5,0 C 3,0 C 2,6 C 83 % 1036,1 hPa 0,0 l/m 0,00 h 0,00 h 0 W/m 0,0 km/h (0 Bft) 97,94 %
13.05.2019 05:00 4,0 C 2,2 C 1,9 C 85 % 1036,4 hPa 0,0 l/m 0,00 h 0,00 h 6 W/m 0,0 km/h (0 Bft) 95,16 %
13.05.2019 06:00 3,3 C 2,5 C 1,9 C 86 % 1036,7 hPa 0,0 l/m 0,00 h 0,00 h 22 W/m 0,3 km/h (0 Bft) 98,13 %
13.05.2019 07:00 3,8 C 4,9 C 3,8 C 91 % 1037,0 hPa 0,0 l/m 0,00 h 0,00 h 50 W/m 2,4 km/h (1 Bft) 99,15 %
13.05.2019 08:00 6,6 C 11,3 C 8,9 C 92 % 1037,2 hPa 0,0 l/m 0,43 h 0,00 h 213 W/m 8,9 km/h (2 Bft) 97,02 %
13.05.2019 09:00 10,4 C 16,2 C 17,4 C 75 % 1037,2 hPa 0,0 l/m 1,00 h 0,00 h 509 W/m 10,5 km/h (2 Bft) 97,20 %
13.05.2019 10:00 13,2 C 20,4 C 21,8 C 65 % 1037,3 hPa 0,0 l/m 1,00 h 0,00 h 695 W/m 9,8 km/h (2 Bft) 95,74 %
13.05.2019 11:00 15,2 C 22,9 C 24,7 C 56 % 1037,3 hPa 0,0 l/m 1,00 h 0,00 h 844 W/m 10,1 km/h (2 Bft) 96,13 %
13.05.2019 12:00 16,8 C 23,7 C 26,5 C 48 % 1037,0 hPa 0,0 l/m 1,00 h 0,00 h 923 W/m 11,9 km/h (2 Bft) 96,43 %
13.05.2019 13:00 17,7 C 23,4 C 28,1 C 45 % 1036,5 hPa 0,0 l/m 1,00 h 0,00 h 948 W/m 11,2 km/h (2 Bft) 96,25 %
13.05.2019 14:00 18,6 C 23,1 C 25,8 C 43 % 1035,8 hPa 0,0 l/m 1,00 h 0,00 h 926 W/m 11,9 km/h (2 Bft) 98,86 %
13.05.2019 15:00 19,3 C 21,9 C 18,6 C 41 % 1035,2 hPa 0,0 l/m 1,00 h 0,00 h 852 W/m 11,7 km/h (2 Bft) 97,15 %
13.05.2019 16:00 19,5 C 19,3 C 18,1 C 39 % 1034,6 hPa 0,0 l/m 1,00 h 0,00 h 729 W/m 12,5 km/h (3 Bft) 98,79 %
13.05.2019 17:00 19,4 C 18,4 C 17,7 C 38 % 1034,2 hPa 0,0 l/m 1,00 h 0,00 h 578 W/m 13,9 km/h (3 Bft) 95,73 %
13.05.2019 18:00 18,5 C 17,2 C 16,2 C 39 % 1033,9 hPa 0,0 l/m 1,02 h 0,00 h 392 W/m 12,8 km/h (3 Bft) 98,01 %
13.05.2019 19:00 16,1 C 14,5 C 12,8 C 42 % 1033,6 hPa 0,0 l/m 0,25 h 0,00 h 102 W/m 11,8 km/h (2 Bft) 99,48 %
13.05.2019 20:00 14,3 C 12,9 C 11,8 C 48 % 1033,5 hPa 0,0 l/m 0,00 h 0,00 h 22 W/m 6,8 km/h (2 Bft) 95,01 %
13.05.2019 21:00 12,9 C 11,2 C 10,2 C 52 % 1033,5 hPa 0,0 l/m 0,00 h 0,00 h 4 W/m 4,8 km/h (1 Bft) 97,91 %
13.05.2019 22:00 11,5 C 9,9 C 9,0 C 55 % 1033,7 hPa 0,0 l/m 0,00 h 0,00 h 0 W/m 4,6 km/h (1 Bft) 98,42 %
13.05.2019 23:00 10,3 C 9,0 C 8,3 C 57 % 1033,9 hPa 0,0 l/m 0,00 h 0,00 h 0 W/m 6,1 km/h (2 Bft) 97,30 %
14.05.2019 00:00 9,5 C 8,2 C 7,8 C 61 % 1033,8 hPa 0,0 l/m 0,00 h 0,00 h 0 W/m 8,0 km/h (2 Bft) 97,24 %
14.05.2019 01:00 8,8 C 7,3 C 6,7 C 66 % 1033,7 hPa 0,0 l/m 0,00 h 0,00 h 0 W/m 6,0 km/h (2 Bft) 96,94 %
14.05.2019 02:00 7,7 C 6,0 C 5,5 C 70 % 1033,6 hPa 0,0 l/m 0,00 h 0,00 h 0 W/m 3,7 km/h (1 Bft) 97,51 %
14.05.2019 03:00 7,0 C 6,0 C 5,5 C 76 % 1033,5 hPa 0,0 l/m 0,00 h 0,00 h 0 W/m 7,5 km/h (2 Bft) 97,30 %
14.05.2019 04:00 6,6 C 5,6 C 5,2 C 80 % 1033,2 hPa 0,0 l/m 0,00 h 0,00 h 0 W/m 8,3 km/h (2 Bft) 98,88 %
14.05.2019 05:00 6,0 C 4,6 C 4,2 C 82 % 1033,2 hPa 0,0 l/m 0,00 h 0,00 h 5 W/m 4,0 km/h (1 Bft) 95,38 %
14.05.2019 06:00 5,3 C 4,3 C 3,9 C 84 % 1033,1 hPa 0,0 l/m 0,00 h 0,00 h 14 W/m 0,0 km/h (0 Bft) 98,33 %
14.05.2019 07:00 5,2 C 5,1 C 4,3 C 87 % 1033,0 hPa 0,0 l/m 0,00 h 0,00 h 33 W/m 1,7 km/h (1 Bft) 98,17 %
14.05.2019 08:00 7,4 C 12,5 C 9,5 C 87 % 1032,6 hPa 0,0 l/m 0,40 h 0,00 h 203 W/m 9,3 km/h (2 Bft) 97,41 %
14.05.2019 09:00 11,4 C 16,9 C 17,9 C 74 % 1032,3 hPa 0,0 l/m 1,00 h 0,00 h 501 W/m 10,2 km/h (2 Bft) 99,00 %
14.05.2019 10:00 13,6 C 19,7 C 20,7 C 67 % 1032,0 hPa 0,0 l/m 1,00 h 0,00 h 646 W/m 12,3 km/h (3 Bft) 98,66 %
14.05.2019 11:00 15,9 C 22,6 C 24,5 C 59 % 1031,4 hPa 0,0 l/m 0,97 h 0,00 h 804 W/m 12,7 km/h (3 Bft) 97,77 %
14.05.2019 12:00 16,1 C 20,3 C 21,9 C 53 % 1031,1 hPa 0,0 l/m 0,68 h 0,00 h 671 W/m 12,7 km/h (3 Bft) 97,79 %
14.05.2019 13:00 17,3 C 21,8 C 24,9 C 50 % 1030,4 hPa 0,0 l/m 0,80 h 0,00 h 840 W/m 11,6 km/h (2 Bft) 96,12 %
14.05.2019 14:00 17,8 C 22,0 C 24,3 C 49 % 1029,6 hPa 0,0 l/m 1,00 h 0,00 h 918 W/m 12,9 km/h (3 Bft) 97,92 %
14.05.2019 15:00 18,5 C 20,8 C 18,8 C 49 % 1029,0 hPa 0,0 l/m 0,90 h 0,00 h 785 W/m 12,8 km/h (3 Bft) 97,53 %
14.05.2019 16:00 18,3 C 18,2 C 18,0 C 47 % 1028,3 hPa 0,0 l/m 0,87 h 0,00 h 621 W/m 12,7 km/h (3 Bft) 98,64 %
14.05.2019 17:00 18,4 C 17,5 C 17,2 C 46 % 1027,6 hPa 0,0 l/m 0,97 h 0,00 h 503 W/m 11,9 km/h (2 Bft) 97,25 %
14.05.2019 18:00 17,6 C 16,3 C 15,8 C 45 % 1027,2 hPa 0,0 l/m 1,02 h 0,00 h 352 W/m 11,8 km/h (2 Bft) 96,35 %
14.05.2019 19:00 16,1 C 14,9 C 13,7 C 47 % 1027,2 hPa 0,0 l/m 0,28 h 0,00 h 135 W/m 12,0 km/h (2 Bft) 99,35 %
14.05.2019 20:00 14,5 C 13,0 C 12,1 C 51 % 1026,9 hPa 0,0 l/m 0,00 h 0,00 h 33 W/m 7,9 km/h (2 Bft) 98,05 %
14.05.2019 21:00 12,9 C 10,6 C 9,9 C 56 % 1026,9 hPa 0,0 l/m 0,00 h 0,00 h 8 W/m 4,2 km/h (1 Bft) 95,14 %
14.05.2019 22:00 11,1 C 8,8 C 7,9 C 60 % 1026,9 hPa 0,0 l/m 0,00 h 0,00 h 0 W/m 0,9 km/h (0 Bft) 98,33 %
14.05.2019 23:00 9,7 C 7,3 C 6,4 C 65 % 1026,7 hPa 0,0 l/m 0,00 h 0,00 h 0 W/m 0,1 km/h (0 Bft) 98,49 %
15.05.2019 00:00 8,2 C 6,1 C 5,2 C 70 % 1026,3 hPa 0,0 l/m 0,00 h 0,00 h 0 W/m 0,0 km/h (0 Bft) 98,50 %
15.05.2019 01:00 7,1 C 5,7 C 4,8 C 74 % 1026,1 hPa 0,0 l/m 0,00 h 0,00 h 0 W/m 0,4 km/h (0 Bft) 96,73 %
15.05.2019 02:00 6,8 C 6,2 C 5,0 C 78 % 1025,7 hPa 0,0 l/m 0,00 h 0,00 h 0 W/m 3,0 km/h (1 Bft) 96,62 %
15.05.2019 03:00 6,7 C 5,4 C 4,8 C 78 % 1025,5 hPa 0,0 l/m 0,00 h 0,00 h 0 W/m 3,3 km/h (1 Bft) 98,44 %
15.05.2019 04:00 6,0 C 4,5 C 3,9 C 79 % 1025,4 hPa 0,0 l/m 0,00 h 0,00 h 0 W/m 2,1 km/h (1 Bft) 96,74 %
15.05.2019 05:00 5,3 C 4,1 C 3,5 C 81 % 1025,5 hPa 0,0 l/m 0,00 h 0,00 h 5 W/m 1,3 km/h (1 Bft) 99,36 %
15.05.2019 06:00 5,1 C 4,8 C 3,8 C 83 % 1025,5 hPa 0,0 l/m 0,00 h 0,00 h 16 W/m 1,9 km/h (1 Bft) 96,28 %
15.05.2019 07:00 5,8 C 6,2 C 5,0 C 84 % 1025,5 hPa 0,0 l/m 0,00 h 0,00 h 31 W/m 5,3 km/h (1 Bft) 97,37 %
15.05.2019 08:00 8,2 C 14,1 C 9,6 C 78 % 1025,5 hPa 0,0 l/m 0,33 h 0,00 h 160 W/m 8,2 km/h (2 Bft) 98,01 %
15.05.2019 09:00 12,7 C 18,9 C 20,4 C 54 % 1026,5 hPa 0,0 l/m 1,00 h 0,00 h 570 W/m 12,4 km/h (3 Bft) 94,18 %
15.05.2019 10:00 14,9 C 21,9 C 23,5 C 44 % 1027,6 hPa 0,0 l/m 1,00 h 0,00 h 729 W/m 12,8 km/h (3 Bft) 97,65 %
15.05.2019 11:00 16,0 C 22,2 C 25,1 C 40 % 1027,1 hPa 0,0 l/m 1,00 h 0,00 h 854 W/m 14,5 km/h (3 Bft) 96,87 %
15.05.2019 12:00 16,9 C 22,6 C 26,6 C 41 % 1026,6 hPa 0,0 l/m 1,00 h 0,00 h 931 W/m 16,7 km/h (3 Bft) 96,29 %
15.05.2019 13:00 17,8 C 23,2 C 28,2 C 42 % 1026,0 hPa 0,0 l/m 1,00 h 0,00 h 959 W/m 14,6 km/h (3 Bft) 98,98 %
15.05.2019 14:00 18,6 C 22,4 C 26,5 C 40 % 1025,4 hPa 0,0 l/m 0,85 h 0,00 h 941 W/m 15,7 km/h (3 Bft) 98,30 %
15.05.2019 15:00 18,9 C 21,1 C 19,4 C 40 % 1025,0 hPa 0,0 l/m 1,00 h 0,00 h 861 W/m 14,9 km/h (3 Bft) 96,92 %
15.05.2019 16:00 19,2 C 18,8 C 18,8 C 39 % 1024,4 hPa 0,0 l/m 1,00 h 0,00 h 737 W/m 15,4 km/h (3 Bft) 96,89 %
15.05.2019 17:00 18,9 C 17,7 C 17,8 C 39 % 1023,8 hPa 0,0 l/m 1,00 h 0,00 h 580 W/m 15,4 km/h (3 Bft) 98,58 %
15.05.2019 18:00 17,8 C 16,5 C 15,3 C 43 % 1023,4 hPa 0,0 l/m 1,00 h 0,00 h 397 W/m 13,9 km/h (3 Bft) 98,05 %
15.05.2019 19:00 16,1 C 14,5 C 12,5 C 46 % 1023,3 hPa 0,0 l/m 0,30 h 0,00 h 114 W/m 11,5 km/h (2 Bft) 95,95 %
15.05.2019 20:00 14,2 C 12,7 C 11,3 C 50 % 1023,4 hPa 0,0 l/m 0,00 h 0,00 h 24 W/m 7,6 km/h (2 Bft) 99,01 %
15.05.2019 21:00 12,7 C 10,5 C 9,5 C 54 % 1023,3 hPa 0,0 l/m 0,00 h 0,00 h 5 W/m 2,7 km/h (1 Bft) 98,15 %
15.05.2019 22:00 11,2 C 8,7 C 7,9 C 57 % 1023,3 hPa 0,0 l/m 0,00 h 0,00 h 0 W/m 0,1 km/h (0 Bft) 95,64 %
15.05.2019 23:00 10,0 C 8,2 C 7,2 C 63 % 1023,0 hPa 0,0 l/m 0,00 h 0,00 h 0 W/m 0,4 km/h (0 Bft) 97,51 %
16.05.2019 00:00 9,2 C 7,6 C 6,6 C 67 % 1022,6 hPa 0,0 l/m 0,00 h 0,00 h 0 W/m 1,2 km/h (1 Bft) 95,40 %
16.05.2019 01:00 8,5 C 7,0 C 6,3 C 71 % 1022,3 hPa 0,0 l/m 0,00 h 0,00 h 0 W/m 2,6 km/h (1 Bft) 98,93 %
16.05.2019 02:00 7,8 C 6,3 C 5,6 C 73 % 1022,1 hPa 0,0 l/m 0,00 h 0,00 h 0 W/m 1,5 km/h (1 Bft) 95,45 %
16.05.2019 03:00 7,3 C 6,0 C 5,3 C 76 % 1021,5 hPa 0,0 l/m 0,00 h 0,00 h 0 W/m 0,0 km/h (0 Bft) 97,59 %
16.05.2019 04:00 6,9 C 5,7 C 5,0 C 79 % 1021,1 hPa 0,0 l/m 0,00 h 0,00 h 0 W/m 0,0 km/h (0 Bft) 98,19 %
16.05.2019 05:00 6,8 C 6,8 C 6,1 C 81 % 1020,7 hPa 0,0 l/m 0,00 h 0,00 h 0 W/m 0,9 km/h (0 Bft) 96,99 %
16.05.2019 06:00 7,5 C 7,9 C 7,0 C 80 % 1020,4 hPa 0,0 l/m 0,00 h 0,00 h 23 W/m 2,3 km/h (1 Bft) 98,29 %
16.05.2019 07:00 8,3 C 8,6 C 7,4 C 77 % 1020,3 hPa 0,0 l/m 0,00 h 0,00 h 42 W/m 4,3 km/h (1 Bft) 97,09 %
16.05.2019 08:00 9,9 C 12,8 C 9,4 C 69 % 1020,1 hPa 0,0 l/m 0,00 h 0,00 h 79 W/m 7,6 km/h (2 Bft) 96,20 %
16.05.2019 09:00 11,9 C 14,3 C 13,9 C 64 % 1019,8 hPa 0,0 l/m 0,37 h 0,00 h 283 W/m 9,8 km/h (2 Bft) 98,40 %
16.05.2019 10:00 12,3 C 13,4 C 12,9 C 64 % 1019,4 hPa 0,0 l/m 0,07 h 0,00 h 246 W/m 8,3 km/h (2 Bft) 96,87 %
16.05.2019 11:00 12,0 C 12,7 C 12,2 C 63 % 1019,0 hPa 0,0 l/m 0,00 h 0,00 h 225 W/m 7,9 km/h (2 Bft) 98,14 %
16.05.2019 12:00 13,3 C 15,5 C 14,7 C 62 % 1018,4 hPa 0,0 l/m 0,17 h 0,00 h 363 W/m 9,9 km/h (2 Bft) 96,98 %
16.05.2019 13:00 15,3 C 20,1 C 20,6 C 60 % 1017,8 hPa 0,0 l/m 1,00 h 0,00 h 669 W/m 10,8 km/h (2 Bft) 97,23 %
16.05.2019 14:00 17,8 C 20,4 C 20,7 C 58 % 1017,0 hPa 0,0 l/m 0,93 h 0,00 h 571 W/m 12,6 km/h (3 Bft) 99,50 %
16.05.2019 15:00 17,4 C 19,2 C 17,8 C 62 % 1016,1 hPa 0,0 l/m 0,90 h 0,00 h 498 W/m 12,1 km/h (2 Bft) 95,95 %
16.05.2019 16:00 16,4 C 16,2 C 15,8 C 63 % 1015,4 hPa 0,0 l/m 0,10 h 0,07 h 272 W/m 12,9 km/h (3 Bft) 97,22 %
16.05.2019 17:00 14,7 C 14,2 C 14,0 C 65 % 1014,9 hPa 0,0 l/m 0,00 h 0,00 h 146 W/m 10,7 km/h (2 Bft) 99,36 %
16.05.2019 18:00 14,3 C 14,3 C 13,9 C 66 % 1014,3 hPa 0,0 l/m 0,00 h 0,00 h 139 W/m 9,2 km/h (2 Bft) 96,68 %
16.05.2019 19:00 14,1 C 13,4 C 13,0 C 66 % 1013,6 hPa 0,0 l/m 0,03 h 0,00 h 82 W/m 8,6 km/h (2 Bft) 96,87 %
16.05.2019 20:00 13,2 C 12,1 C 11,7 C 68 % 1013,1 hPa 0,0 l/m 0,00 h 0,07 h 24 W/m 6,9 km/h (2 Bft) 98,15 %
16.05.2019 21:00 12,3 C 10,8 C 10,6 C 72 % 1012,9 hPa 0,0 l/m 0,00 h 0,23 h 5 W/m 7,8 km/h (2 Bft) 95,64 %
16.05.2019 22:00 10,9 C 8,6 C 8,6 C 84 % 1013,0 hPa 0,2 l/m 0,00 h 0,37 h 0 W/m 6,5 km/h (2 Bft) 99,62 %
16.05.2019 23:00 9,8 C 8,2 C 8,3 C 89 % 1012,7 hPa 0,0 l/m 0,00 h 0,27 h 0 W/m 3,1 km/h (1 Bft) 97,30 %
17.05.2019 00:00 9,4 C 7,8 C 7,8 C 91 % 1012,2 hPa 0,2 l/m 0,00 h 0,53 h 0 W/m 1,4 km/h (1 Bft) 94,80 %
17.05.2019 01:00 9,2 C 7,8 C 7,8 C 93 % 1011,5 hPa 0,0 l/m 0,00 h 0,00 h 0 W/m 0,7 km/h (0 Bft) 98,86 %
17.05.2019 02:00 9,0 C 7,8 C 7,8 C 94 % 1010,8 hPa 0,0 l/m 0,00 h 0,00 h 0 W/m 0,9 km/h (0 Bft) 98,29 %
17.05.2019 03:00 8,7 C 7,8 C 7,8 C 94 % 1010,2 hPa 0,0 l/m 0,00 h 0,00 h 0 W/m 2,9 km/h (1 Bft) 97,36 %
17.05.2019 04:00 8,6 C 7,8 C 7,8 C 95 % 1009,8 hPa 0,0 l/m 0,00 h 0,00 h 0 W/m 2,4 km/h (1 Bft) 95,36 %
17.05.2019 05:00 8,5 C 7,8 C 7,8 C 95 % 1009,5 hPa 0,0 l/m 0,00 h 0,00 h 0 W/m 3,9 km/h (1 Bft) 98,90 %
17.05.2019 06:00 8,5 C 7,8 C 7,9 C 95 % 1009,2 hPa 0,0 l/m 0,00 h 0,00 h 19 W/m 2,3 km/h (1 Bft) 96,90 %
17.05.2019 07:00 8,8 C 8,7 C 8,9 C 96 % 1009,2 hPa 0,0 l/m 0,00 h 0,00 h 63 W/m 4,0 km/h (1 Bft) 98,32 %
17.05.2019 08:00 9,5 C 10,4 C 10,0 C 95 % 1009,0 hPa 0,0 l/m 0,00 h 0,00 h 101 W/m 3,8 km/h (1 Bft) 97,03 %
17.05.2019 09:00 10,0 C 10,4 C 10,0 C 92 % 1008,8 hPa 0,0 l/m 0,00 h 0,00 h 86 W/m 7,9 km/h (2 Bft) 96,57 %
17.05.2019 10:00 10,5 C 10,9 C 10,4 C 87 % 1008,3 hPa 0,0 l/m 0,00 h 0,00 h 109 W/m 9,1 km/h (2 Bft) 99,09 %
17.05.2019 11:00 11,2 C 11,7 C 11,3 C 85 % 1008,0 hPa 0,0 l/m 0,00 h 0,00 h 186 W/m 12,2 km/h (3 Bft) 96,33 %
17.05.2019 12:00 11,6 C 11,7 C 11,4 C 83 % 1007,6 hPa 0,0 l/m 0,00 h 0,00 h 117 W/m 8,9 km/h (2 Bft) 97,77 %
17.05.2019 13:00 11,6 C 11,4 C 11,2 C 84 % 1007,6 hPa 0,0 l/m 0,00 h 0,03 h 107 W/m 9,1 km/h (2 Bft) 98,25 %
17.05.2019 14:00 11,8 C 11,0 C 10,7 C 88 % 1007,5 hPa 0,0 l/m 0,00 h 0,87 h 139 W/m 9,5 km/h (2 Bft) 96,68 %
17.05.2019 15:00 11,9 C 11,0 C 11,2 C 91 % 1007,4 hPa 0,4 l/m 0,00 h 0,90 h 194 W/m 4,6 km/h (1 Bft) 96,80 %
17.05.2019 16:00 12,8 C 12,2 C 12,1 C 93 % 1007,1 hPa 0,0 l/m 0,00 h 0,13 h 169 W/m 5,5 km/h (1 Bft) 98,26 %
17.05.2019 17:00 12,8 C 11,8 C 11,7 C 93 % 1006,7 hPa 0,2 l/m 0,00 h 0,70 h 106 W/m 3,6 km/h (1 Bft) 98,44 %
17.05.2019 18:00 12,8 C 12,1 C 11,8 C 94 % 1006,2 hPa 0,0 l/m 0,00 h 0,07 h 100 W/m 3,4 km/h (1 Bft) 95,67 %
17.05.2019 19:00 12,9 C 11,8 C 11,6 C 94 % 1006,1 hPa 0,0 l/m 0,00 h 0,07 h 33 W/m 1,0 km/h (0 Bft) 98,21 %
17.05.2019 20:00 12,7 C 11,6 C 11,1 C 94 % 1006,0 hPa 0,2 l/m 0,00 h 0,00 h 11 W/m 0,0 km/h (0 Bft) 98,86 %
17.05.2019 21:00 12,4 C 11,1 C 10,8 C 94 % 1006,2 hPa 0,0 l/m 0,00 h 0,00 h 0 W/m 0,0 km/h (0 Bft) 96,70 %
17.05.2019 22:00 12,2 C 11,1 C 10,6 C 94 % 1006,2 hPa 0,0 l/m 0,00 h 0,00 h 0 W/m 0,0 km/h (0 Bft) 96,67 %
17.05.2019 23:00 12,0 C 10,8 C 10,3 C 94 % 1006,1 hPa 0,0 l/m 0,00 h 0,00 h 0 W/m 0,0 km/h (0 Bft) 99,22 %
18.05.2019 00:00 11,7 C 10,3 C 9,7 C 95 % 1006,0 hPa 0,0 l/m 0,00 h 0,00 h 0 W/m 0,0 km/h (0 Bft) 97,81 %
18.05.2019 01:00 10,9 C 9,1 C 8,6 C 95 % 1005,8 hPa 0,0 l/m 0,00 h 0,00 h 0 W/m 0,0 km/h (0 Bft) 95,87 %
18.05.2019 02:00 9,9 C 8,0 C 7,6 C 94 % 1005,8 hPa 0,0 l/m 0,00 h 0,00 h 0 W/m 0,0 km/h (0 Bft) 98,22 %
18.05.2019 03:00 9,2 C 7,8 C 7,4 C 95 % 1005,6 hPa 0,0 l/m 0,00 h 0,00 h 0 W/m 0,0 km/h (0 Bft) 98,58 %
18.05.2019 04:00 8,9 C 7,8 C 7,2 C 95 % 1005,6 hPa 0,0 l/m 0,00 h 0,00 h 0 W/m 0,0 km/h (0 Bft) 97,51 %
18.05.2019 05:00 8,9 C 7,7 C 7,1 C 96 % 1005,4 hPa 0,0 l/m 0,00 h 0,00 h 8 W/m 0,3 km/h (0 Bft) 96,59 %
18.05.2019 06:00 8,5 C 8,5 C 7,9 C 96 % 1005,5 hPa 0,0 l/m 0,33 h 0,00 h 40 W/m 0,0 km/h (0 Bft) 98,14 %
18.05.2019 07:00 9,6 C 10,2 C 9,5 C 97 % 1005,6 hPa 0,0 l/m 0,00 h 0,00 h 44 W/m 0,1 km/h (0 Bft) 98,35 %
18.05.2019 08:00 10,5 C 11,4 C 10,5 C 98 % 1005,7 hPa 0,0 l/m 0,00 h 0,00 h 75 W/m 0,6 km/h (0 Bft) 95,44 %
18.05.2019 09:00 11,9 C 15,1 C 14,2 C 98 % 1006,0 hPa 0,0 l/m 0,27 h 0,00 h 244 W/m 3,4 km/h (1 Bft) 98,47 %
18.05.2019 10:00 15,4 C 23,1 C 22,2 C 91 % 1006,1 hPa 0,0 l/m 0,80 h 0,00 h 564 W/m 5,3 km/h (1 Bft) 98,80 %
18.05.2019 11:00 19,0 C 25,7 C 25,4 C 78 % 1006,2 hPa 0,0 l/m 0,97 h 0,00 h 682 W/m 6,0 km/h (2 Bft) 96,76 %
18.05.2019 12:00 20,4 C 25,2 C 26,5 C 69 % 1006,2 hPa 0,0 l/m 0,87 h 0,00 h 733 W/m 10,8 km/h (2 Bft) 97,89 %
18.05.2019 13:00 21,2 C 25,0 C 25,9 C 64 % 1006,0 hPa 0,0 l/m 1,00 h 0,00 h 636 W/m 10,3 km/h (2 Bft) 95,81 %
18.05.2019 14:00 22,9 C 27,9 C 27,2 C 63 % 1005,8 hPa 0,0 l/m 1,00 h 0,00 h 866 W/m 8,9 km/h (2 Bft) 98,29 %
18.05.2019 15:00 23,9 C 25,4 C 22,5 C 55 % 1005,5 hPa 0,0 l/m 0,77 h 0,00 h 686 W/m 9,7 km/h (2 Bft) 99,29 %
18.05.2019 16:00 23,4 C 23,5 C 21,7 C 55 % 1005,2 hPa 0,0 l/m 0,50 h 0,00 h 431 W/m 5,9 km/h (2 Bft) 95,74 %
18.05.2019 17:00 22,6 C 22,5 C 20,9 C 57 % 1005,2 hPa 0,0 l/m 0,27 h 0,00 h 266 W/m 6,4 km/h (2 Bft) 98,00 %
18.05.2019 18:00 23,0 C 22,4 C 21,4 C 58 % 1005,3 hPa 0,0 l/m 0,43 h 0,00 h 257 W/m 7,3 km/h (2 Bft) 98,30 %
18.05.2019 19:00 20,9 C 18,7 C 18,1 C 65 % 1005,7 hPa 0,0 l/m 0,00 h 0,00 h 53 W/m 4,7 km/h (1 Bft) 97,45 %
18.05.2019 20:00 18,9 C 17,1 C 16,7 C 68 % 1006,1 hPa 0,0 l/m 0,00 h 0,00 h 30 W/m 4,1 km/h (1 Bft) 97,03 %
18.05.2019 21:00 17,2 C 14,7 C 13,9 C 70 % 1006,2 hPa 0,0 l/m 0,00 h 0,00 h 8 W/m 0,3 km/h (0 Bft) 97,43 %
18.05.2019 22:00 15,8 C 13,7 C 12,8 C 75 % 1006,4 hPa 0,0 l/m 0,00 h 0,00 h 0 W/m 1,0 km/h (0 Bft) 97,61 %
18.05.2019 23:00 15,5 C 13,7 C 13,5 C 82 % 1006,6 hPa 0,4 l/m 0,00 h 0,63 h 0 W/m 5,0 km/h (1 Bft) 99,35 %
19.05.2019 00:00 15,2 C 12,8 C 12,7 C 88 % 1006,7 hPa 0,2 l/m 0,00 h 0,47 h 0 W/m 2,5 km/h (1 Bft) 94,15 %
19.05.2019 01:00 14,6 C 12,8 C 12,6 C 91 % 1006,3 hPa 0,6 l/m 0,00 h 0,47 h 0 W/m 0,4 km/h (0 Bft) 98,58 %
19.05.2019 02:00 14,2 C 12,7 C 12,2 C 93 % 1005,6 hPa 0,0 l/m 0,00 h 0,00 h 0 W/m 1,2 km/h (1 Bft) 99,21 %
19.05.2019 03:00 13,8 C 12,2 C 12,2 C 94 % 1005,4 hPa 0,0 l/m 0,00 h 0,00 h 0 W/m 0,5 km/h (0 Bft) 96,60 %
19.05.2019 04:00 13,4 C 11,9 C 11,6 C 94 % 1005,2 hPa 0,0 l/m 0,00 h 0,00 h 0 W/m 0,0 km/h (0 Bft) 97,36 %
19.05.2019 05:00 12,9 C 11,2 C 10,8 C 94 % 1005,1 hPa 0,0 l/m 0,00 h 0,00 h 7 W/m 0,0 km/h (0 Bft) 97,52 %
19.05.2019 06:00 12,5 C 11,9 C 11,2 C 95 % 1005,3 hPa 0,0 l/m 0,00 h 0,00 h 41 W/m 0,3 km/h (0 Bft) 97,71 %
19.05.2019 07:00 13,2 C 13,2 C 12,3 C 96 % 1005,4 hPa 0,0 l/m 0,00 h 0,00 h 69 W/m 0,3 km/h (0 Bft) 98,18 %
19.05.2019 08:00 14,3 C 16,7 C 14,0 C 97 % 1005,4 hPa 0,0 l/m 0,00 h 0,00 h 124 W/m 0,7 km/h (0 Bft) 95,81 %
19.05.2019 09:00 16,3 C 20,7 C 17,1 C 96 % 1005,5 hPa 0,0 l/m 0,63 h 0,00 h 308 W/m 0,0 km/h (0 Bft) 98,29 %
19.05.2019 10:00 18,2 C 22,4 C 20,1 C 88 % 1005,5 hPa 0,0 l/m 0,73 h 0,00 h 392 W/m 0,1 km/h (0 Bft) 98,45 %
19.05.2019 11:00 19,9 C 24,7 C 23,9 C 77 % 1005,3 hPa 0,0 l/m 1,00 h 0,00 h 592 W/m 5,8 km/h (2 Bft) 97,91 %
19.05.2019 12:00 21,9 C 27,6 C 26,7 C 72 % 1004,9 hPa 0,0 l/m 1,00 h 0,00 h 688 W/m 6,5 km/h (2 Bft) 98,16 %
19.05.2019 13:00 23,5 C 27,6 C 27,5 C 65 % 1004,5 hPa 0,0 l/m 0,80 h 0,00 h 629 W/m 9,8 km/h (2 Bft) 95,32 %
19.05.2019 14:00 24,3 C 28,2 C 27,7 C 60 % 1004,3 hPa 0,0 l/m 0,77 h 0,00 h 648 W/m 8,0 km/h (2 Bft) 98,93 %
19.05.2019 15:00 24,6 C 25,7 C 23,7 C 57 % 1004,2 hPa 0,0 l/m 0,33 h 0,00 h 399 W/m 8,2 km/h (2 Bft) 98,72 %
19.05.2019 16:00 22,8 C 21,6 C 20,5 C 59 % 1004,2 hPa 0,0 l/m 0,00 h 0,00 h 144 W/m 14,6 km/h (3 Bft) 94,93 %
19.05.2019 17:00 18,9 C 17,9 C 17,7 C 65 % 1004,7 hPa 0,0 l/m 0,00 h 0,00 h 76 W/m 16,2 km/h (3 Bft) 98,86 %
19.05.2019 18:00 17,9 C 16,9 C 16,6 C 73 % 1004,4 hPa 0,0 l/m 0,00 h 0,00 h 74 W/m 10,5 km/h (2 Bft) 98,64 %
19.05.2019 19:00 17,1 C 16,0 C 15,9 C 81 % 1004,4 hPa 0,0 l/m 0,00 h 0,00 h 61 W/m 5,2 km/h (1 Bft) 96,65 %
19.05.2019 20:00 16,2 C 15,1 C 15,0 C 83 % 1004,8 hPa 0,0 l/m 0,00 h 0,00 h 16 W/m 10,1 km/h (2 Bft) 97,58 %
19.05.2019 21:00 15,7 C 14,6 C 14,4 C 86 % 1005,4 hPa 0,0 l/m 0,00 h 0,00 h 0 W/m 8,6 km/h (2 Bft) 97,72 %
19.05.2019 22:00 15,4 C 13,9 C 13,6 C 88 % 1005,9 hPa 0,0 l/m 0,00 h 0,00 h 0 W/m 2,0 km/h (1 Bft) 97,27 %
19.05.2019 23:00 14,5 C 12,4 C 12,0 C 88 % 1005,9 hPa 0,0 l/m 0,00 h 0,00 h 0 W/m 0,0 km/h (0 Bft) 99,01 %
Min-Datum _ 13.05.19 13.05.19 13.05.19 13.05.19 19.05.19 - - - - 13.05.19 16.05.19
_ Min-Zeit 06:28 05:36 05:58 17:10 16:12 - - - - 01:26 00:02
Minimum _ 3,2 C 1,7 C 1,1 C 35 % 1003,9 hPa - - - - 0,0 km/h (0 Bft) 9,09 %
Max-Datum _ 19.05.19 18.05.19 18.05.19 18.05.19 13.05.19 19.05.19 15.05.19 19.05.19 16.05.19 19.05.19 13.05.19
_ Max-Zeit 14:54 14:40 14:28 08:02 09:18 01:08 09:10 00:08 14:06 16:50 00:44
Maximum _ 24,9 C 31,1 C 30,6 C 98 % 1037,4 hPa 0,6 l/m 0,08 h 0,07 h 1100 W/m 35,4 km/h
N-NW (5 Bft)
100,00 %
Durchschnitt _ 13,1 C 13,6 C 13,2 C 72 % 1018,3 hPa #2,4 l/m #47:06 h #6:00 h 330 W/m 6,1 km/h (2 Bft) 97,49 %
© 2019 W. Hausmann